Time;durP1;ratioP1;P1;durP2;ratioP2;P2;SDS_P1;SDS_P2;PMS_P1;PMS_P2;Temp;Humidity;BMP_temperature;BMP_pressure;BME280_temperature;BME280_humidity;BME280_pressure;Samples;Min_cycle;Max_cycle;Signal;HPM_P1;HPM_P2
2023/07/14 00:00:51;;;;;;;3.37;2.03;;;16.80;98.70;;;17.24;100.00;98393.66;4962465;28;20469;-85
2023/07/14 00:03:21;;;;;;;4.87;1.63;;;16.70;98.80;;;17.14;100.00;98394.19;4960255;28;20571;-86
2023/07/14 00:05:52;;;;;;;4.53;1.50;;;16.70;99.00;;;17.12;100.00;98390.94;4960621;28;20942;-86
2023/07/14 00:08:23;;;;;;;2.30;1.70;;;16.60;99.40;;;17.10;100.00;98391.16;4961062;28;20623;-85
2023/07/14 00:10:53;;;;;;;2.50;1.80;;;16.50;99.20;;;17.10;100.00;98382.44;4962158;28;20462;-85
2023/07/14 00:13:22;;;;;;;3.20;1.80;;;16.50;99.30;;;17.10;100.00;98383.25;4962187;28;20473;-86
2023/07/14 00:15:53;;;;;;;4.03;1.63;;;16.50;99.70;;;17.08;100.00;98382.63;4961947;28;20477;-86
2023/07/14 00:18:27;;;;;;;2.60;1.50;;;16.50;99.40;;;17.02;100.00;98380.06;4960459;28;20829;-86
2023/07/14 00:20:58;;;;;;;3.20;1.63;;;16.50;99.40;;;17.02;100.00;98380.88;4961857;28;20468;-86
2023/07/14 00:23:29;;;;;;;5.97;1.73;;;16.40;99.60;;;17.00;100.00;98376.84;4960113;28;20495;-86
2023/07/14 00:25:59;;;;;;;2.60;1.57;;;16.40;99.90;;;17.05;100.00;98369.06;4960565;28;20496;-85
2023/07/14 00:28:31;;;;;;;3.23;1.80;;;16.30;99.90;;;16.96;100.00;98365.91;4960498;28;20465;-85
2023/07/14 00:31:01;;;;;;;13.23;1.97;;;16.30;99.70;;;16.88;100.00;98362.72;4959641;28;20474;-85
2023/07/14 00:33:32;;;;;;;2.33;1.87;;;16.30;99.90;;;16.87;100.00;98361.91;4958003;28;20465;-85
2023/07/14 00:36:02;;;;;;;5.07;1.63;;;16.20;99.90;;;16.81;100.00;98368.09;4958864;28;21049;-85
2023/07/14 00:38:34;;;;;;;2.00;1.37;;;16.20;99.90;;;16.83;100.00;98365.25;4962305;28;20464;-86
2023/07/14 00:41:07;;;;;;;3.10;1.87;;;16.20;99.90;;;16.78;100.00;98362.44;4960584;28;20496;-86
2023/07/14 00:43:38;;;;;;;3.83;1.53;;;16.20;99.90;;;16.80;100.00;98368.31;4961831;28;20464;-86
2023/07/14 00:46:12;;;;;;;2.33;1.80;;;16.10;99.90;;;16.87;100.00;98375.13;4959447;28;20496;-86
2023/07/14 00:48:42;;;;;;;3.87;1.77;;;16.10;99.90;;;16.85;100.00;98371.09;4962334;28;20964;-86
2023/07/14 00:51:17;;;;;;;2.40;1.87;;;16.10;99.90;;;16.93;100.00;98370.81;4961155;28;20563;-86
2023/07/14 00:53:49;;;;;;;3.80;1.40;;;16.10;99.90;;;16.84;100.00;98374.75;4962190;28;20539;-86
2023/07/14 00:56:44;;;;;;;3.57;1.97;;;16.10;99.90;;;16.74;100.00;98372.63;4959909;28;20480;-86
2023/07/14 00:59:17;;;;;;;3.30;1.90;;;16.10;99.90;;;16.78;100.00;98373.00;4958176;28;20981;-86
2023/07/14 01:02:21;;;;;;;2.70;1.57;;;16.00;99.90;;;16.74;100.00;98362.06;4959205;28;20476;-86
2023/07/14 01:04:57;;;;;;;7.13;2.03;;;16.00;99.90;;;16.71;100.00;98377.53;4958935;28;20543;-86
2023/07/14 01:07:35;;;;;;;1.30;1.20;;;16.00;99.90;;;16.71;100.00;98380.19;4959050;28;20599;-85
2023/07/14 01:10:11;;;;;;;2.87;1.70;;;16.00;99.90;;;16.67;100.00;98374.53;4961105;28;20889;-86
2023/07/14 01:12:47;;;;;;;3.20;1.87;;;15.90;99.90;;;16.67;100.00;98369.25;4964366;28;20501;-86
2023/07/14 01:15:19;;;;;;;2.43;1.40;;;15.90;99.90;;;16.55;100.00;98377.09;4959843;28;20468;-86
2023/07/14 01:17:51;;;;;;;2.93;1.67;;;15.90;99.90;;;16.55;100.00;98366.53;4965530;28;20562;-85
2023/07/14 01:20:21;;;;;;;3.40;1.70;;;15.80;99.90;;;16.48;100.00;98378.94;4962449;28;20558;-86
2023/07/14 01:23:05;;;;;;;2.17;1.53;;;15.80;99.90;;;16.48;100.00;98368.38;4962666;28;20705;-86
2023/07/14 01:25:57;;;;;;;2.53;1.60;;;15.80;99.90;;;16.43;100.00;98370.03;4959395;28;20492;-86
2023/07/14 01:28:28;;;;;;;1.80;1.50;;;15.80;99.90;;;16.41;100.00;98372.09;4960305;28;20546;-86
2023/07/14 01:30:57;;;;;;;3.90;1.83;;;15.80;99.90;;;16.43;100.00;98370.84;4962906;28;20454;-86
2023/07/14 01:33:27;;;;;;;3.60;2.10;;;15.70;99.90;;;16.44;100.00;98367.19;4961915;28;20476;-85
2023/07/14 01:36:01;;;;;;;6.03;1.80;;;15.70;99.90;;;16.45;100.00;98373.28;4963343;28;20527;-86
2023/07/14 01:38:30;;;;;;;3.93;1.97;;;15.80;99.90;;;16.43;100.00;98368.22;4962746;28;20838;-86
2023/07/14 01:41:01;;;;;;;3.93;2.00;;;15.80;99.90;;;16.42;100.00;98369.22;4958311;28;20511;-85
2023/07/14 01:43:32;;;;;;;3.27;2.00;;;15.70;99.90;;;16.46;100.00;98364.31;4962738;28;20469;-86
2023/07/14 01:46:07;;;;;;;3.07;2.00;;;15.70;99.90;;;16.40;100.00;98367.84;4960285;28;20457;-85
2023/07/14 01:48:45;;;;;;;3.17;2.10;;;15.70;99.90;;;16.38;100.00;98369.91;4959462;28;20471;-86
2023/07/14 01:51:18;;;;;;;3.40;1.70;;;15.70;99.90;;;16.30;100.00;98362.22;4960653;28;20468;-86
2023/07/14 01:53:57;;;;;;;2.73;1.50;;;15.70;99.90;;;16.27;100.00;98360.84;4959016;28;20465;-86
2023/07/14 01:56:29;;;;;;;3.17;1.50;;;15.60;99.90;;;16.27;100.00;98360.03;4957275;28;20466;-85
2023/07/14 01:59:16;;;;;;;3.43;1.57;;;15.60;99.90;;;16.22;100.00;98346.66;4958595;28;20458;-86
2023/07/14 02:01:50;;;;;;;1.87;1.50;;;15.60;99.90;;;16.16;100.00;98348.34;4962433;28;20456;-86
2023/07/14 02:04:25;;;;;;;5.40;2.20;;;15.50;99.90;;;16.07;100.00;98349.59;4958647;28;21074;-85
2023/07/14 02:06:57;;;;;;;14.33;2.30;;;15.50;99.90;;;16.06;100.00;98343.53;4957643;28;20480;-84
2023/07/14 02:09:28;;;;;;;3.50;1.87;;;15.50;99.90;;;16.07;100.00;98339.06;4963022;28;20467;-86
2023/07/14 02:12:04;;;;;;;7.20;1.90;;;15.50;99.90;;;16.12;100.00;98344.50;4960380;28;20496;-86
2023/07/14 02:14:47;;;;;;;2.73;1.77;;;15.40;99.90;;;16.16;100.00;98342.25;4962987;28;20457;-86
2023/07/14 02:17:30;;;;;;;2.43;1.77;;;15.40;99.90;;;16.08;100.00;98346.75;4961456;28;20464;-86
2023/07/14 02:20:06;;;;;;;5.43;2.17;;;15.40;99.90;;;15.96;100.00;98345.84;4958697;28;20465;-86
2023/07/14 02:22:37;;;;;;;3.63;2.00;;;15.40;99.90;;;15.92;100.00;98335.94;4957975;28;20470;-85
2023/07/14 02:25:13;;;;;;;3.10;1.63;;;15.40;99.90;;;15.99;100.00;98336.69;4958119;28;20464;-86
2023/07/14 02:27:42;;;;;;;2.70;1.93;;;15.30;99.90;;;15.99;100.00;98331.41;4963274;28;20863;-86
2023/07/14 02:30:20;;;;;;;3.33;1.90;;;15.30;99.90;;;15.93;100.00;98333.06;4964567;28;20567;-86
2023/07/14 02:32:57;;;;;;;3.80;1.50;;;15.30;99.90;;;15.95;100.00;98336.31;4961964;28;20464;-86
2023/07/14 02:35:34;;;;;;;22.07;1.87;;;15.30;99.90;;;15.89;100.00;98336.38;4963295;28;20488;-86
2023/07/14 02:38:12;;;;;;;3.73;2.00;;;15.30;99.90;;;15.91;100.00;98326.41;4960198;28;20473;-86
2023/07/14 02:40:51;;;;;;;8.87;1.90;;;15.30;99.90;;;15.92;100.00;98325.38;4960161;28;20521;-86
2023/07/14 02:43:24;;;;;;;2.50;1.70;;;15.30;99.90;;;15.92;100.00;98331.47;4961479;28;20464;-86
2023/07/14 02:45:58;;;;;;;3.13;1.70;;;15.30;99.90;;;15.96;100.00;98334.50;4966241;28;20461;-85
2023/07/14 02:48:38;;;;;;;3.90;1.70;;;15.30;99.90;;;15.95;100.00;98331.03;4964157;28;20500;-85
2023/07/14 02:51:09;;;;;;;2.10;1.63;;;15.30;99.90;;;16.02;100.00;98331.81;4965216;28;20467;-86
2023/07/14 02:53:39;;;;;;;2.40;1.90;;;15.30;99.90;;;16.00;100.00;98338.31;4964613;28;20958;-86
2023/07/14 02:56:09;;;;;;;2.97;1.80;;;15.30;99.90;;;15.95;100.00;98324.94;4962147;28;20546;-85
2023/07/14 02:58:40;;;;;;;2.70;1.70;;;15.30;99.90;;;15.97;100.00;98328.16;4962422;28;20473;-86
2023/07/14 03:01:11;;;;;;;6.77;2.40;;;15.30;99.90;;;16.02;100.00;98331.00;4959198;28;20554;-86
2023/07/14 03:03:41;;;;;;;2.20;1.63;;;15.30;99.90;;;16.06;100.00;98332.19;4959645;28;20477;-85
2023/07/14 03:06:15;;;;;;;2.83;1.77;;;15.30;99.90;;;15.99;100.00;98331.41;4966377;28;20460;-90
2023/07/14 03:08:45;;;;;;;2.80;1.50;;;15.30;99.90;;;16.08;100.00;98328.28;4961535;28;20501;-86
2023/07/14 03:11:15;;;;;;;2.30;1.70;;;15.30;99.90;;;16.09;100.00;98331.75;4961665;28;21006;-86
2023/07/14 03:13:46;;;;;;;15.13;1.70;;;15.30;99.90;;;16.04;100.00;98328.94;4961128;28;20997;-85
2023/07/14 03:16:17;;;;;;;2.77;1.90;;;15.30;99.90;;;15.98;100.00;98324.53;4962764;28;20853;-86
2023/07/14 03:18:46;;;;;;;4.00;2.20;;;15.30;99.90;;;16.02;100.00;98331.00;4960297;28;20977;-85
2023/07/14 03:21:16;;;;;;;1.93;1.53;;;15.20;99.90;;;15.98;100.00;98324.53;4966677;28;20469;-90
2023/07/14 03:23:45;;;;;;;3.87;1.87;;;15.30;99.90;;;15.97;100.00;98328.16;4960589;28;20513;-86
2023/07/14 03:26:15;;;;;;;5.40;2.30;;;15.30;99.90;;;15.94;100.00;98323.31;4964286;28;20476;-86
2023/07/14 03:28:45;;;;;;;2.60;2.00;;;15.20;99.90;;;15.96;100.00;98310.75;4958736;28;20596;-86
2023/07/14 03:31:17;;;;;;;2.93;1.60;;;15.20;99.90;;;15.92;100.00;98314.84;4961455;28;21115;-91
2023/07/14 03:33:47;;;;;;;5.40;2.50;;;15.30;99.90;;;15.90;100.00;98315.03;4960584;28;20477;-88
2023/07/14 03:36:20;;;;;;;2.13;1.50;;;15.20;99.90;;;15.91;100.00;98318.47;4960607;28;20472;-87
2023/07/14 03:39:25;;;;;;;4.50;2.10;;;15.20;99.90;;;15.90;100.00;98314.22;4963851;28;20977;-87
2023/07/14 03:41:57;;;;;;;1.70;1.50;;;15.20;99.90;;;15.88;100.00;98317.09;4961128;28;20472;-87
2023/07/14 03:44:27;;;;;;;7.80;2.47;;;15.20;99.90;;;15.84;100.00;98312.44;4963444;28;20950;-91
2023/07/14 03:46:56;;;;;;;2.50;2.07;;;15.20;99.90;;;15.80;100.00;98311.25;4958825;28;20466;-87
2023/07/14 03:49:27;;;;;;;3.80;1.77;;;15.20;99.90;;;15.77;100.00;98311.69;4960745;28;20523;-90
2023/07/14 03:51:57;;;;;;;3.13;1.80;;;15.20;99.90;;;15.72;100.00;98306.25;4963379;28;20899;-86
2023/07/14 03:54:28;;;;;;;3.00;1.97;;;15.20;99.90;;;15.75;100.00;98309.28;4960612;28;20469;-87
2023/07/14 03:56:58;;;;;;;4.63;2.10;;;15.10;99.90;;;15.76;100.00;98302.19;4959585;28;20959;-85
2023/07/14 03:59:30;;;;;;;2.70;1.80;;;15.10;99.90;;;15.78;100.00;98297.50;4963327;28;20843;-84
2023/07/14 04:02:00;;;;;;;3.03;1.77;;;15.10;99.90;;;15.71;100.00;98299.38;4961676;28;20464;-85
2023/07/14 04:04:31;;;;;;;2.20;1.50;;;15.10;99.90;;;15.66;100.00;98293.91;4962606;28;20472;-86
2023/07/14 04:07:02;;;;;;;3.67;2.13;;;15.10;99.90;;;15.69;100.00;98288.22;4962645;28;20464;-85
2023/07/14 04:09:34;;;;;;;3.03;1.87;;;15.10;99.90;;;15.69;100.00;98294.28;4962677;28;20544;-84
2023/07/14 04:12:08;;;;;;;4.33;1.90;;;15.10;99.90;;;15.72;100.00;98301.78;4962365;28;20570;-85
2023/07/14 04:14:44;;;;;;;5.50;2.00;;;15.10;99.90;;;15.73;100.00;98297.31;4965008;28;20468;-85
2023/07/14 04:17:13;;;;;;;4.53;1.73;;;15.10;99.90;;;15.79;100.00;98299.91;4961857;28;20470;-86
2023/07/14 04:19:43;;;;;;;4.27;1.70;;;15.10;99.90;;;15.81;100.00;98297.88;4964846;28;20561;-86
2023/07/14 04:22:14;;;;;;;2.10;1.80;;;15.10;99.90;;;15.82;100.00;98294.22;4960046;28;20975;-88
2023/07/14 04:24:46;;;;;;;5.13;2.00;;;15.10;99.90;;;15.88;100.00;98301.25;4959949;28;20461;-87
2023/07/14 04:27:16;;;;;;;3.87;2.10;;;15.20;99.90;;;15.95;100.00;98295.94;4959720;28;20468;-87
2023/07/14 04:29:48;;;;;;;6.53;2.10;;;15.20;99.90;;;16.02;100.00;98299.34;4961717;28;21432;-88
2023/07/14 04:32:17;;;;;;;7.13;2.10;;;15.20;99.90;;;16.05;100.00;98293.63;4960745;28;20472;-89
2023/07/14 04:34:49;;;;;;;4.90;2.27;;;15.20;99.90;;;16.07;100.00;98294.19;4957947;28;20584;-87
2023/07/14 04:37:18;;;;;;;2.97;2.03;;;15.30;99.90;;;16.09;100.00;98290.34;4958651;28;20476;-87
2023/07/14 04:39:48;;;;;;;3.13;1.87;;;15.30;99.90;;;16.10;100.00;98284.03;4959120;28;20839;-84
2023/07/14 04:42:17;;;;;;;3.90;1.93;;;15.40;99.90;;;16.07;100.00;98281.81;4965064;28;20822;-85
2023/07/14 04:44:47;;;;;;;3.40;2.07;;;15.40;99.90;;;16.06;100.00;98284.69;4963581;28;20453;-84
2023/07/14 04:47:18;;;;;;;3.03;1.97;;;15.40;99.90;;;16.11;100.00;98290.13;4963753;28;20500;-84
2023/07/14 04:49:47;;;;;;;4.10;1.70;;;15.30;99.90;;;16.18;100.00;98285.59;4961679;28;20501;-85
2023/07/14 04:52:18;;;;;;;2.30;1.60;;;15.30;99.90;;;16.22;100.00;98280.69;4964630;28;20473;-85
2023/07/14 04:54:49;;;;;;;3.63;1.63;;;15.30;99.90;;;16.24;100.00;98282.09;4963889;28;20479;-85
2023/07/14 04:57:20;;;;;;;2.43;1.90;;;15.40;99.90;;;16.28;100.00;98279.84;4962056;28;20458;-85
2023/07/14 04:59:51;;;;;;;2.83;1.73;;;15.40;99.90;;;16.23;100.00;98283.13;4971498;28;20476;-84
2023/07/14 05:02:22;;;;;;;6.40;2.00;;;15.40;99.90;;;16.21;100.00;98279.88;4965030;28;20457;-85
2023/07/14 05:05:14;;;;;;;5.20;1.87;;;15.40;99.90;;;16.21;100.00;98271.97;4963646;28;20463;-85
2023/07/14 05:07:47;;;;;;;2.37;1.80;;;15.40;99.90;;;16.21;100.00;98277.22;4961945;28;21080;-85
2023/07/14 05:10:18;;;;;;;3.57;1.97;;;15.50;99.90;;;16.23;100.00;98269.94;4961066;28;20480;-84
2023/07/14 05:12:52;;;;;;;3.10;1.50;;;15.50;99.90;;;16.25;100.00;98267.06;4960736;28;20949;-85
2023/07/14 05:15:23;;;;;;;3.10;1.70;;;15.50;99.90;;;16.29;100.00;98269.03;4960044;28;20500;-86
2023/07/14 05:17:55;;;;;;;3.03;2.73;;;15.50;99.90;;;16.26;100.00;98264.22;4962626;28;20972;-85
2023/07/14 05:20:25;;;;;;;4.50;2.13;;;15.60;99.90;;;16.28;100.00;98267.41;4961294;28;21178;-85
2023/07/14 05:22:56;;;;;;;2.70;1.40;;;15.50;99.90;;;16.32;100.00;98263.34;4961127;28;20968;-84
2023/07/14 05:25:29;;;;;;;5.13;2.20;;;15.50;99.90;;;16.36;100.00;98266.34;4963550;28;20468;-85
2023/07/14 05:27:59;;;;;;;4.73;2.27;;;15.60;99.90;;;16.35;100.00;98257.59;4964637;28;20577;-84
2023/07/14 05:30:29;;;;;;;3.33;2.03;;;15.60;99.90;;;16.44;100.00;98261.59;4962636;28;20470;-84
2023/07/14 05:33:00;;;;;;;2.13;1.60;;;15.60;99.90;;;16.49;100.00;98260.91;4963503;28;20456;-85
2023/07/14 05:35:31;;;;;;;3.93;1.80;;;15.60;99.90;;;16.54;100.00;98255.81;4963722;28;20488;-84
2023/07/14 05:38:02;;;;;;;2.50;1.53;;;15.70;99.90;;;16.55;100.00;98252.16;4964728;28;20489;-84
2023/07/14 05:40:33;;;;;;;3.43;2.10;;;15.70;99.90;;;16.62;100.00;98255.56;4964362;28;20465;-84
2023/07/14 05:43:25;;;;;;;4.23;1.87;;;15.80;99.90;;;16.70;100.00;98255.25;4962849;28;20469;-84
2023/07/14 05:45:58;;;;;;;3.37;2.03;;;15.80;99.90;;;16.75;100.00;98246.66;4966734;28;20495;-85
2023/07/14 05:48:28;;;;;;;2.27;1.90;;;15.80;99.90;;;16.80;100.00;98250.25;4963786;28;20488;-84
2023/07/14 05:51:01;;;;;;;5.67;2.27;;;15.80;99.90;;;16.80;100.00;98252.88;4962511;28;20461;-84
2023/07/14 05:53:31;;;;;;;7.03;1.93;;;15.90;99.90;;;16.89;100.00;98248.13;4964322;28;20472;-84
2023/07/14 05:56:02;;;;;;;4.00;1.63;;;15.90;99.90;;;16.93;100.00;98249.28;4959779;28;20475;-85
2023/07/14 05:58:33;;;;;;;8.33;2.30;;;16.00;99.90;;;17.02;100.00;98253.22;4963114;28;20543;-84
2023/07/14 06:01:03;;;;;;;4.60;1.87;;;16.00;99.90;;;17.09;100.00;98236.25;4960723;28;21049;-84
2023/07/14 06:03:33;;;;;;;3.33;2.03;;;16.10;99.90;;;17.15;100.00;98250.41;4961228;28;20516;-85
2023/07/14 06:06:06;;;;;;;4.60;2.10;;;16.20;99.90;;;17.22;100.00;98237.91;4959615;28;20835;-84
2023/07/14 06:08:38;;;;;;;5.13;2.20;;;16.30;99.90;;;17.27;100.00;98246.00;4960587;28;20512;-84
2023/07/14 06:11:09;;;;;;;2.30;1.83;;;16.30;99.90;;;17.35;100.00;98243.03;4959826;28;20465;-86
2023/07/14 06:13:38;;;;;;;7.37;2.30;;;16.40;99.90;;;17.37;100.00;98238.31;4960721;28;20534;-86
2023/07/14 06:16:08;;;;;;;2.97;2.00;;;16.50;99.90;;;17.34;100.00;98240.59;4958832;28;20466;-86
2023/07/14 06:18:38;;;;;;;6.20;2.20;;;16.60;99.90;;;17.43;100.00;98234.78;4960269;28;20647;-85
2023/07/14 06:21:11;;;;;;;4.70;2.30;;;16.60;99.90;;;17.50;100.00;98246.06;4960273;28;20888;-85
2023/07/14 06:23:41;;;;;;;4.33;2.30;;;16.60;99.90;;;17.53;100.00;98237.66;4960484;28;20459;-85
2023/07/14 06:26:15;;;;;;;4.20;1.70;;;16.70;99.90;;;17.57;100.00;98236.22;4961541;28;20553;-85
2023/07/14 06:28:46;;;;;;;2.47;1.80;;;16.70;99.90;;;17.60;100.00;98230.47;4960853;28;20499;-85
2023/07/14 06:31:15;;;;;;;4.73;2.30;;;16.80;99.90;;;17.64;100.00;98224.72;4958579;28;20480;-85
2023/07/14 06:33:47;;;;;;;4.10;1.87;;;16.80;99.90;;;17.69;100.00;98222.22;4960059;28;20484;-85
2023/07/14 06:36:17;;;;;;;3.30;2.00;;;16.90;99.90;;;17.70;100.00;98211.38;4959977;28;20553;-85
2023/07/14 06:38:47;;;;;;;5.53;2.13;;;16.90;99.90;;;17.74;100.00;98223.13;4959245;28;20886;-85
2023/07/14 06:41:19;;;;;;;2.17;1.50;;;17.00;99.90;;;17.81;100.00;98215.09;4961472;28;20476;-86
2023/07/14 06:43:48;;;;;;;4.03;1.60;;;17.00;99.90;;;17.84;100.00;98215.44;4960051;28;21006;-85
2023/07/14 06:46:19;;;;;;;4.80;2.00;;;17.00;99.90;;;17.90;100.00;98209.25;4959515;28;20956;-85
2023/07/14 06:48:49;;;;;;;3.10;2.00;;;17.10;99.90;;;17.97;100.00;98209.13;4958042;28;21117;-85
2023/07/14 06:51:19;;;;;;;3.43;1.90;;;17.10;99.90;;;18.02;100.00;98206.56;4959438;28;20473;-85
2023/07/14 06:53:52;;;;;;;9.53;2.07;;;17.20;99.90;;;18.07;100.00;98202.22;4965186;28;20805;-85
2023/07/14 06:56:23;;;;;;;6.47;2.20;;;17.20;99.90;;;18.12;100.00;98196.22;4962829;28;21026;-85
2023/07/14 06:58:53;;;;;;;2.33;1.70;;;17.30;99.90;;;18.17;100.00;98201.63;4962732;28;20465;-85
2023/07/14 07:01:25;;;;;;;9.97;3.23;;;17.40;99.90;;;18.22;100.00;98199.13;4962634;28;20882;-85
2023/07/14 07:03:58;;;;;;;2.93;1.87;;;17.40;99.90;;;18.30;100.00;98188.16;4962283;28;20467;-85
2023/07/14 07:06:27;;;;;;;4.70;2.50;;;17.50;99.90;;;18.39;100.00;98193.91;4962869;28;20477;-85
2023/07/14 07:08:56;;;;;;;6.87;2.20;;;17.50;99.90;;;18.45;100.00;98191.13;4961047;28;20465;-85
2023/07/14 07:11:28;;;;;;;6.03;2.33;;;17.60;99.90;;;18.52;100.00;98180.44;4962399;28;20876;-85
2023/07/14 07:13:59;;;;;;;2.20;1.57;;;17.70;99.90;;;18.59;100.00;98175.81;4961919;28;20978;-85
2023/07/14 07:16:28;;;;;;;6.10;2.60;;;17.80;99.90;;;18.68;100.00;98178.88;4966525;28;20460;-85
2023/07/14 07:18:58;;;;;;;3.60;2.03;;;17.80;99.90;;;18.74;100.00;98184.06;4965919;28;20543;-85
2023/07/14 07:21:29;;;;;;;4.00;1.70;;;17.90;99.90;;;18.81;100.00;98178.63;4965223;28;20476;-85
2023/07/14 07:23:59;;;;;;;3.73;1.80;;;18.00;99.90;;;18.87;100.00;98175.03;4965058;28;20523;-85
2023/07/14 07:26:30;;;;;;;3.83;2.03;;;18.10;99.90;;;18.94;100.00;98173.84;4961357;28;20508;-85
2023/07/14 07:29:00;;;;;;;3.93;1.70;;;18.10;99.90;;;18.98;100.00;98174.16;4960022;28;20545;-85
2023/07/14 07:31:30;;;;;;;6.00;2.17;;;18.20;99.90;;;19.03;100.00;98171.59;4962396;28;21306;-85
2023/07/14 07:34:00;;;;;;;2.70;1.73;;;18.20;99.90;;;19.08;100.00;98166.41;4960921;28;21205;-84
2023/07/14 07:36:29;;;;;;;3.53;2.20;;;18.30;99.90;;;19.14;100.00;98161.97;4962606;28;20512;-85
2023/07/14 07:38:59;;;;;;;5.20;2.53;;;18.30;99.90;;;19.17;100.00;98162.31;4961726;28;20464;-85
2023/07/14 07:41:31;;;;;;;3.70;2.00;;;18.30;99.90;;;19.22;100.00;98162.41;4968784;28;20889;-85
2023/07/14 07:44:02;;;;;;;4.47;2.27;;;18.40;99.90;;;19.27;100.00;98162.47;4964094;28;20489;-87
2023/07/14 07:46:33;;;;;;;8.40;2.50;;;18.50;99.90;;;19.34;100.00;98170.28;4965582;28;20997;-85
2023/07/14 07:49:04;;;;;;;2.63;1.80;;;18.50;99.90;;;19.39;100.00;98162.41;4964622;28;20469;-85
2023/07/14 07:51:36;;;;;;;4.70;1.90;;;18.50;99.90;;;19.45;100.00;98158.81;4965604;28;21020;-86
2023/07/14 07:54:07;;;;;;;5.33;2.70;;;18.60;99.90;;;19.51;100.00;98161.31;4962297;28;20558;-87
2023/07/14 07:56:43;;;;;;;6.17;1.87;;;18.70;99.90;;;19.58;100.00;98151.34;4965129;28;20472;-87
2023/07/14 07:59:15;;;;;;;2.63;1.80;;;18.80;99.80;;;19.68;100.00;98152.56;4964513;28;20518;-86
2023/07/14 08:01:46;;;;;;;3.60;1.63;;;18.80;99.90;;;19.73;100.00;98153.44;4964903;28;20463;-87
2023/07/14 08:04:19;;;;;;;3.00;1.60;;;18.90;99.60;;;19.79;100.00;98152.47;4966772;28;20465;-87
2023/07/14 08:06:50;;;;;;;2.77;1.90;;;19.00;99.60;;;19.85;100.00;98142.75;4964932;28;20468;-87
2023/07/14 08:09:21;;;;;;;3.50;1.80;;;19.00;99.20;;;19.93;100.00;98144.97;4963521;28;20481;-86
2023/07/14 08:11:58;;;;;;;8.10;2.33;;;19.10;99.30;;;19.99;100.00;98138.69;4964479;28;20469;-86
2023/07/14 08:14:29;;;;;;;1.57;1.30;;;19.20;99.20;;;20.05;100.00;98143.81;4964422;28;20487;-87
2023/07/14 08:16:59;;;;;;;9.63;2.60;;;19.30;98.80;;;20.12;100.00;98132.22;4961797;28;20999;-85
2023/07/14 08:19:29;;;;;;;3.30;1.80;;;19.30;98.40;;;20.18;100.00;98142.66;4961571;28;20550;-85
2023/07/14 08:22:00;;;;;;;4.23;1.80;;;19.40;98.70;;;20.25;100.00;98135.31;4962917;28;20476;-85
2023/07/14 08:24:31;;;;;;;3.00;1.80;;;19.40;98.70;;;20.31;100.00;98134.34;4962821;28;20506;-85
2023/07/14 08:27:03;;;;;;;3.60;1.70;;;19.50;98.70;;;20.39;100.00;98139.22;4960664;28;20457;-85
2023/07/14 08:29:32;;;;;;;5.53;2.10;;;19.60;98.60;;;20.48;100.00;98132.41;4961287;28;20495;-85
2023/07/14 08:32:02;;;;;;;5.53;2.10;;;19.70;98.60;;;20.55;100.00;98138.34;4960133;28;20477;-86
2023/07/14 08:34:33;;;;;;;3.80;1.63;;;19.80;98.50;;;20.62;98.09;98137.38;4961534;28;20484;-85
2023/07/14 08:37:04;;;;;;;6.03;1.70;;;19.90;98.00;;;20.67;96.04;98134.75;4961245;28;20465;-85
2023/07/14 08:39:35;;;;;;;3.40;1.60;;;19.90;97.90;;;20.75;96.32;98135.13;4964000;28;20469;-86
2023/07/14 08:42:30;;;;;;;4.37;1.77;;;20.00;97.70;;;20.83;95.81;98133.84;4965110;28;20979;-85
2023/07/14 08:45:37;;;;;;;2.90;1.60;;;20.00;97.50;;;20.92;96.03;98127.06;4963097;28;20461;-85
2023/07/14 08:48:27;;;;;;;2.63;1.50;;;20.10;97.70;;;21.01;95.52;98126.34;4963782;28;20548;-84
2023/07/14 08:51:02;;;;;;;4.43;1.83;;;20.20;97.80;;;21.09;94.83;98122.44;4962711;28;20622;-85
2023/07/14 08:53:34;;;;;;;3.73;1.50;;;20.40;97.80;;;21.14;94.86;98111.84;4964553;28;20464;-85
2023/07/14 08:56:06;;;;;;;6.83;2.00;;;20.40;97.40;;;21.25;94.49;98110.09;4962736;28;20469;-85
2023/07/14 08:58:43;;;;;;;4.53;1.80;;;20.50;97.80;;;21.33;94.64;98118.41;4963815;28;20518;-85
2023/07/14 09:01:35;;;;;;;4.50;1.87;;;20.60;97.40;;;21.42;93.21;98116.06;4963744;28;20456;-85
2023/07/14 09:04:15;;;;;;;4.43;1.90;;;20.70;97.10;;;21.52;92.54;98119.63;4964354;28;20493;-85
2023/07/14 09:06:43;;;;;;;7.33;1.97;;;20.70;97.30;;;21.60;90.84;98113.00;4964433;28;20468;-85
2023/07/14 09:09:18;;;;;;;4.20;1.80;;;20.90;96.90;;;21.70;89.99;98112.28;4963318;28;20930;-85
2023/07/14 09:12:03;;;;;;;3.10;1.63;;;21.00;97.10;;;21.77;87.25;98118.19;4964889;28;20496;-84
2023/07/14 09:14:57;;;;;;;3.27;1.53;;;21.00;96.10;;;21.86;87.38;98116.66;4960132;28;20492;-85
2023/07/14 09:17:49;;;;;;;4.50;1.60;;;21.10;95.50;;;21.93;85.66;98107.41;4960395;28;20480;-85
2023/07/14 09:20:39;;;;;;;4.40;1.83;;;21.20;95.60;;;22.05;85.56;98101.88;4957373;28;20560;-85
2023/07/14 09:23:30;;;;;;;2.33;1.30;;;21.30;95.80;;;22.13;84.96;98095.25;4958550;28;20469;-85
2023/07/14 09:26:13;;;;;;;9.13;1.93;;;21.40;95.30;;;22.20;83.74;98087.81;4959401;28;20480;-85
2023/07/14 09:28:47;;;;;;;6.17;1.73;;;21.40;94.40;;;22.28;82.87;98090.78;4964038;28;20582;-85
2023/07/14 09:31:38;;;;;;;3.20;1.50;;;21.50;94.80;;;22.37;81.32;98091.88;4960359;28;20492;-85
2023/07/14 09:34:22;;;;;;;6.37;1.63;;;21.70;94.80;;;22.36;77.03;98084.13;4963355;28;20513;-85
2023/07/14 09:36:53;;;;;;;7.50;1.60;;;21.60;93.70;;;22.45;78.23;98082.59;4961655;28;20483;-85
2023/07/14 09:39:35;;;;;;;7.50;1.67;;;21.70;93.80;;;22.52;78.52;98089.28;4962216;28;20468;-85
2023/07/14 09:42:13;;;;;;;4.60;1.80;;;21.70;93.50;;;22.59;78.62;98087.13;4961991;28;20481;-85
2023/07/14 09:44:43;;;;;;;5.87;2.27;;;21.80;93.50;;;22.65;78.06;98095.16;4963441;28;20491;-82
2023/07/14 09:47:16;;;;;;;3.83;1.77;;;21.90;93.80;;;22.64;72.92;98090.88;4962979;28;20508;-84
2023/07/14 09:49:51;;;;;;;4.30;1.83;;;22.00;92.70;;;22.66;75.74;98094.09;4963214;28;20461;-85
2023/07/14 09:52:23;;;;;;;7.83;1.77;;;21.90;92.90;;;22.67;72.28;98087.72;4961652;28;20585;-85
2023/07/14 09:54:55;;;;;;;16.53;2.00;;;22.00;92.10;;;22.68;72.52;98087.47;4962864;28;20480;-85
2023/07/14 09:57:29;;;;;;;5.43;1.70;;;22.00;92.00;;;22.70;72.99;98089.88;4962534;28;20577;-85
2023/07/14 10:00:24;;;;;;;2.70;1.70;;;22.00;92.60;;;22.68;73.36;98092.78;4962787;28;20486;-85
2023/07/14 10:03:09;;;;;;;2.57;1.63;;;21.90;92.60;;;22.67;74.84;98099.19;4965642;28;20461;-84
2023/07/14 10:05:52;;;;;;;4.63;1.60;;;21.90;93.70;;;22.62;76.07;98093.81;4963882;28;20457;-85
2023/07/14 10:08:33;;;;;;;4.27;1.60;;;21.90;93.70;;;22.61;75.80;98092.22;4958252;28;20480;-84
2023/07/14 10:11:21;;;;;;;5.23;1.57;;;21.90;93.50;;;22.56;77.55;98090.31;4959285;28;20492;-85
2023/07/14 10:13:59;;;;;;;5.90;1.63;;;21.90;94.30;;;22.55;77.57;98099.41;4959468;28;20477;-84
2023/07/14 10:16:32;;;;;;;2.60;1.33;;;21.80;94.20;;;22.52;78.18;98099.13;4960449;28;20488;-85
2023/07/14 10:19:15;;;;;;;11.10;2.73;;;21.80;94.20;;;22.49;78.58;98092.44;4959020;28;20470;-85
2023/07/14 10:21:55;;;;;;;7.23;1.70;;;21.80;94.30;;;22.50;78.51;98086.06;4963884;28;20461;-86
2023/07/14 10:24:26;;;;;;;4.90;1.60;;;21.70;93.90;;;22.48;79.92;98077.53;4962668;28;20469;-85
2023/07/14 10:27:01;;;;;;;5.03;2.03;;;21.70;95.00;;;22.51;79.35;98063.69;4966783;28;20518;-85
2023/07/14 10:29:49;;;;;;;6.10;1.80;;;21.70;94.40;;;22.52;78.54;98040.50;4964778;28;20858;-85
2023/07/14 10:32:29;;;;;;;2.87;1.40;;;21.70;94.30;;;22.53;75.64;98016.22;4962648;28;20596;-84
2023/07/14 10:35:13;;;;;;;8.07;1.90;;;21.80;93.60;;;22.57;76.47;97976.50;4964180;28;21342;-85
2023/07/14 10:37:52;;;;;;;6.30;1.83;;;21.80;93.60;;;22.65;76.60;97977.84;4961878;28;20480;-85
2023/07/14 10:40:26;;;;;;;2.13;1.50;;;21.80;93.80;;;22.72;76.93;97986.41;4962418;28;20465;-85